Time,TemperatureF,DewpointF,PressureIn,WindDirection,WindDirectionDegrees,WindSpeedMPH,WindSpeedGustMPH,Humidity,HourlyPrecipIn,Conditions,Clouds,dailyrainin,SolarRadiationWatts/m^2,SoftwareType,DateUTC
2013-07-04 00:00:00,63.0,61.0,-100.00,WNW,292,0.0,-999.0,90,-99.99,,,-99.99,0.000000,,2013-07-04 04:00:00,
2013-07-04 00:52:00,63.0,61.0,-100.00,WNW,292,0.0,-999.0,90,-99.99,,,-99.99,0.000000,,2013-07-04 04:52:00,
2013-07-04 01:00:00,63.0,60.0,-100.00,ESE,112,0.0,-999.0,91,-99.99,,,-99.99,0.000000,,2013-07-04 05:00:00,
2013-07-04 01:43:00,63.0,60.0,-100.00,ESE,112,0.0,-999.0,91,-99.99,,,-99.99,0.000000,,2013-07-04 05:43:00,
2013-07-04 01:52:00,63.0,60.0,-100.00,ESE,112,0.0,-999.0,91,-99.99,,,-99.99,0.000000,,2013-07-04 05:52:00,
2013-07-04 02:00:00,63.0,60.0,-100.00,ESE,112,1.0,-999.0,92,-99.99,,,-99.99,0.000000,,2013-07-04 06:00:00,
2013-07-04 02:43:00,63.0,60.0,-100.00,ESE,112,1.0,-999.0,92,-99.99,,,-99.99,0.000000,,2013-07-04 06:43:00,
2013-07-04 02:53:00,63.0,60.0,-100.00,ESE,112,1.0,-999.0,92,-99.99,,,-99.99,0.000000,,2013-07-04 06:53:00,
2013-07-04 03:00:00,62.0,60.0,-100.00,SSW,202,1.0,-999.0,92,-99.99,,,-99.99,0.000000,,2013-07-04 07:00:00,
2013-07-04 03:43:00,62.0,60.0,-100.00,SSW,202,1.0,-999.0,92,-99.99,,,-99.99,0.000000,,2013-07-04 07:43:00,
2013-07-04 03:52:00,62.0,60.0,-100.00,SSW,202,1.0,-999.0,92,-99.99,,,-99.99,0.000000,,2013-07-04 07:52:00,
2013-07-04 04:00:00,61.0,58.0,-100.00,South,180,1.0,-999.0,92,-99.99,,,-99.99,0.000000,,2013-07-04 08:00:00,
2013-07-04 04:43:00,61.0,58.0,-100.00,South,180,1.0,-999.0,92,-99.99,,,-99.99,0.000000,,2013-07-04 08:43:00,
2013-07-04 04:53:00,61.0,58.0,-100.00,South,180,1.0,-999.0,92,-99.99,,,-99.99,0.000000,,2013-07-04 08:53:00,
2013-07-04 06:00:00,58.0,56.0,-100.00,SSW,202,1.0,-999.0,93,-99.99,,,-99.99,0.000000,,2013-07-04 10:00:00,
2013-07-04 06:43:00,58.0,56.0,-100.00,SSW,202,1.0,-999.0,93,-99.99,,,-99.99,0.000000,,2013-07-04 10:43:00,
2013-07-04 06:53:00,58.0,56.0,-100.00,SSW,202,1.0,-999.0,93,-99.99,,,-99.99,0.000000,,2013-07-04 10:53:00,
2013-07-04 07:00:00,58.0,56.0,-100.00,South,180,1.0,-999.0,93,-99.99,,,-99.99,8.120000,,2013-07-04 11:00:00,
2013-07-04 07:43:00,58.0,56.0,-100.00,South,180,1.0,-999.0,93,-99.99,,,-99.99,8.120000,,2013-07-04 11:43:00,
2013-07-04 07:53:00,58.0,56.0,-100.00,South,180,1.0,-999.0,93,-99.99,,,-99.99,8.120000,,2013-07-04 11:53:00,
2013-07-04 08:00:00,60.0,58.0,-100.00,South,180,1.0,-999.0,93,-99.99,,,-99.99,83.519997,,2013-07-04 12:00:00,
2013-07-04 08:43:00,60.0,58.0,-100.00,South,180,1.0,-999.0,93,-99.99,,,-99.99,83.519997,,2013-07-04 12:43:00,
2013-07-04 08:52:00,60.0,58.0,-100.00,South,180,1.0,-999.0,93,-99.99,,,-99.99,83.519997,,2013-07-04 12:52:00,
2013-07-04 09:00:00,65.0,62.0,-100.00,SSW,202,2.0,-999.0,90,-99.99,,,-99.99,313.200012,,2013-07-04 13:00:00,
2013-07-04 09:43:00,65.0,62.0,-100.00,SSW,202,2.0,-999.0,90,-99.99,,,-99.99,313.200012,,2013-07-04 13:43:00,
2013-07-04 09:53:00,65.0,62.0,-100.00,SSW,202,2.0,-999.0,90,-99.99,,,-99.99,313.200012,,2013-07-04 13:53:00,
2013-07-04 10:00:00,69.0,62.0,-100.00,SW,225,2.0,-999.0,78,-99.99,,,-99.99,491.839996,,2013-07-04 14:00:00,
2013-07-04 10:43:00,69.0,62.0,-100.00,SW,225,2.0,-999.0,78,-99.99,,,-99.99,491.839996,,2013-07-04 14:43:00,
2013-07-04 10:53:00,69.0,62.0,-100.00,SW,225,2.0,-999.0,78,-99.99,,,-99.99,491.839996,,2013-07-04 14:53:00,
2013-07-04 11:00:00,73.0,61.0,-100.00,SW,225,2.0,-999.0,66,-99.99,,,-99.99,653.080017,,2013-07-04 15:00:00,
2013-07-04 11:43:00,73.0,61.0,-100.00,SW,225,2.0,-999.0,66,-99.99,,,-99.99,653.080017,,2013-07-04 15:43:00,
2013-07-04 11:53:00,73.0,61.0,-100.00,SW,225,2.0,-999.0,66,-99.99,,,-99.99,653.080017,,2013-07-04 15:53:00,
2013-07-04 13:00:00,76.0,60.0,-100.00,WSW,247,5.0,-999.0,56,-99.99,,,-99.99,735.440002,,2013-07-04 17:00:00,
2013-07-04 13:43:00,76.0,60.0,-100.00,WSW,247,5.0,-999.0,56,-99.99,,,-99.99,735.440002,,2013-07-04 17:43:00,
2013-07-04 13:53:00,76.0,60.0,-100.00,WSW,247,5.0,-999.0,56,-99.99,,,-99.99,735.440002,,2013-07-04 17:53:00,
2013-07-04 14:00:00,77.0,60.0,-100.00,SW,225,4.0,-999.0,56,-99.99,,,-99.99,644.960022,,2013-07-04 18:00:00,
2013-07-04 14:43:00,77.0,60.0,-100.00,SW,225,4.0,-999.0,56,-99.99,,,-99.99,644.960022,,2013-07-04 18:43:00,
2013-07-04 14:52:00,77.0,60.0,-100.00,SW,225,4.0,-999.0,56,-99.99,,,-99.99,644.960022,,2013-07-04 18:52:00,
2013-07-04 15:00:00,77.0,61.0,-100.00,SW,225,4.0,-999.0,57,-99.99,,,-99.99,501.119995,,2013-07-04 19:00:00,
2013-07-04 15:43:00,77.0,61.0,-100.00,SW,225,4.0,-999.0,57,-99.99,,,-99.99,501.119995,,2013-07-04 19:43:00,
2013-07-04 15:53:00,77.0,61.0,-100.00,SW,225,4.0,-999.0,57,-99.99,,,-99.99,501.119995,,2013-07-04 19:53:00,
2013-07-04 16:00:00,77.0,61.0,-100.00,SSW,202,3.0,-999.0,58,-99.99,,,-99.99,504.600006,,2013-07-04 20:00:00,
2013-07-04 16:42:00,77.0,61.0,-100.00,SSW,202,3.0,-999.0,58,-99.99,,,-99.99,504.600006,,2013-07-04 20:42:00,
2013-07-04 16:53:00,77.0,61.0,-100.00,SSW,202,3.0,-999.0,58,-99.99,,,-99.99,504.600006,,2013-07-04 20:53:00,
2013-07-04 17:00:00,77.0,62.0,-100.00,South,180,4.0,-999.0,59,-99.99,,,-99.99,422.239990,,2013-07-04 21:00:00,
2013-07-04 17:43:00,77.0,62.0,-100.00,South,180,4.0,-999.0,59,-99.99,,,-99.99,422.239990,,2013-07-04 21:43:00,
2013-07-04 17:53:00,77.0,62.0,-100.00,South,180,4.0,-999.0,59,-99.99,,,-99.99,422.239990,,2013-07-04 21:53:00,
2013-07-04 18:00:00,75.0,61.0,-100.00,South,180,3.0,-999.0,61,-99.99,,,-99.99,293.480011,,2013-07-04 22:00:00,
2013-07-04 18:43:00,75.0,61.0,-100.00,South,180,3.0,-999.0,61,-99.99,,,-99.99,293.480011,,2013-07-04 22:43:00,
2013-07-04 18:52:00,75.0,61.0,-100.00,South,180,3.0,-999.0,61,-99.99,,,-99.99,293.480011,,2013-07-04 22:52:00,
2013-07-04 19:00:00,74.0,61.0,-100.00,SSW,202,2.0,-999.0,63,-99.99,,,-99.99,186.759995,,2013-07-04 23:00:00,
2013-07-04 19:33:00,74.0,61.0,-100.00,SSW,202,2.0,-999.0,63,-99.99,,,-99.99,186.759995,,2013-07-04 23:33:00,
2013-07-04 19:43:00,74.0,61.0,-100.00,SSW,202,2.0,-999.0,63,-99.99,,,-99.99,186.759995,,2013-07-04 23:43:00,
2013-07-04 19:52:00,74.0,61.0,-100.00,SSW,202,2.0,-999.0,63,-99.99,,,-99.99,186.759995,,2013-07-04 23:52:00,
2013-07-04 21:00:00,71.0,62.0,-100.00,South,180,2.0,-999.0,71,-99.99,,,-99.99,53.360001,,2013-07-05 01:00:00,
2013-07-04 21:32:00,71.0,62.0,-100.00,South,180,2.0,-999.0,71,-99.99,,,-99.99,53.360001,,2013-07-05 01:32:00,
2013-07-04 21:42:00,71.0,62.0,-100.00,South,180,2.0,-999.0,71,-99.99,,,-99.99,53.360001,,2013-07-05 01:42:00,
2013-07-04 21:52:00,71.0,62.0,-100.00,South,180,2.0,-999.0,71,-99.99,,,-99.99,53.360001,,2013-07-05 01:52:00,
2013-07-04 22:00:00,69.0,61.0,-100.00,South,180,2.0,-999.0,75,-99.99,,,-99.99,4.640000,,2013-07-05 02:00:00,
2013-07-04 22:43:00,69.0,61.0,-100.00,South,180,2.0,-999.0,75,-99.99,,,-99.99,4.640000,,2013-07-05 02:43:00,
2013-07-04 22:53:00,69.0,61.0,-100.00,South,180,2.0,-999.0,75,-99.99,,,-99.99,4.640000,,2013-07-05 02:53:00,